createdAt,value
2022-12-03T00:00:12.094Z,12.60
2022-12-03T00:02:40.652Z,12.07
2022-12-03T00:05:08.739Z,12.20
2022-12-03T00:07:37.556Z,12.65
2022-12-03T00:10:06.005Z,11.50
2022-12-03T00:12:33.440Z,11.27
2022-12-03T00:15:00.879Z,12.13
2022-12-03T00:17:28.421Z,11.85
2022-12-03T00:19:55.900Z,11.95
2022-12-03T00:22:23.322Z,12.30
2022-12-03T00:24:52.350Z,10.95
2022-12-03T00:27:20.015Z,18.10
2022-12-03T00:29:47.469Z,11.38
2022-12-03T00:32:14.960Z,11.13
2022-12-03T00:34:42.418Z,10.82
2022-12-03T00:37:09.850Z,10.80
2022-12-03T00:39:37.301Z,10.50
2022-12-03T00:42:06.575Z,11.07
2022-12-03T00:44:34.003Z,10.63
2022-12-03T00:47:01.522Z,10.50
2022-12-03T00:49:29.014Z,9.85
2022-12-03T00:51:56.448Z,10.30
2022-12-03T00:54:30.102Z,10.60
2022-12-03T00:56:59.271Z,9.30
2022-12-03T00:59:28.042Z,10.10
2022-12-03T01:01:55.557Z,10.07
2022-12-03T01:04:23.078Z,9.60
2022-12-03T01:06:50.608Z,10.00
2022-12-03T01:09:18.123Z,9.48
2022-12-03T01:11:45.622Z,9.63
2022-12-03T01:14:14.026Z,9.23
2022-12-03T01:16:43.033Z,10.13
2022-12-03T01:19:10.972Z,9.32
2022-12-03T01:21:38.464Z,10.32
2022-12-03T01:24:06.628Z,9.77
2022-12-03T01:26:34.089Z,9.63
2022-12-03T01:29:01.557Z,9.30
2022-12-03T01:31:46.618Z,9.45
2022-12-03T01:34:15.458Z,9.05
2022-12-03T01:36:42.935Z,9.23
2022-12-03T01:39:10.373Z,9.30
2022-12-03T01:41:37.843Z,9.10
2022-12-03T01:44:05.618Z,9.27
2022-12-03T01:46:35.619Z,9.10
2022-12-03T01:49:03.169Z,9.15
2022-12-03T01:51:31.918Z,8.70
2022-12-03T01:53:59.481Z,9.40
2022-12-03T01:56:26.921Z,9.30
2022-12-03T01:58:54.392Z,9.60
2022-12-03T02:01:21.937Z,9.75
2022-12-03T02:03:49.562Z,9.88
2022-12-03T02:06:17.982Z,10.07
2022-12-03T02:08:47.394Z,9.73
2022-12-03T02:11:18.760Z,9.75
2022-12-03T02:13:46.208Z,8.85
2022-12-03T02:16:13.755Z,8.90
2022-12-03T02:18:41.294Z,10.43
2022-12-03T02:21:13.088Z,9.82
2022-12-03T02:23:43.119Z,10.38
2022-12-03T02:26:11.888Z,10.02
2022-12-03T02:28:39.417Z,10.02
2022-12-03T02:31:06.978Z,10.68
2022-12-03T02:33:34.437Z,9.27
2022-12-03T02:36:03.932Z,10.05
2022-12-03T02:38:31.737Z,9.75
2022-12-03T02:41:00.805Z,10.05
2022-12-03T02:43:28.660Z,10.43
2022-12-03T02:45:56.745Z,10.43
2022-12-03T02:48:25.826Z,9.73
2022-12-03T02:50:54.628Z,9.77
2022-12-03T02:53:25.837Z,9.95
2022-12-03T02:55:53.336Z,9.50
2022-12-03T02:58:20.814Z,9.85
2022-12-03T03:00:50.277Z,9.38
2022-12-03T03:03:17.826Z,10.18
2022-12-03T03:05:45.282Z,10.82
2022-12-03T03:08:12.863Z,10.70
2022-12-03T03:10:40.948Z,10.93
2022-12-03T03:13:09.839Z,11.77
2022-12-03T03:15:37.344Z,10.40
2022-12-03T03:18:06.211Z,11.57
2022-12-03T03:20:33.660Z,11.20
2022-12-03T03:23:06.081Z,10.95
2022-12-03T03:25:33.518Z,11.18
2022-12-03T03:28:00.956Z,11.25
2022-12-03T03:30:28.410Z,11.73
2022-12-03T03:32:55.856Z,11.25
2022-12-03T03:35:24.637Z,11.20
2022-12-03T03:37:52.112Z,11.98
2022-12-03T03:40:19.569Z,11.57
2022-12-03T03:42:47.036Z,11.48
2022-12-03T03:45:14.525Z,11.43
2022-12-03T03:47:41.988Z,11.77
2022-12-03T03:50:10.114Z,12.05
2022-12-03T03:52:38.899Z,12.30
2022-12-03T03:55:06.900Z,11.07
2022-12-03T03:57:34.346Z,11.77
2022-12-03T04:00:01.827Z,11.40
2022-12-03T04:02:29.268Z,11.43
2022-12-03T04:04:56.726Z,11.70
2022-12-03T04:07:24.332Z,11.57
2022-12-03T04:09:53.194Z,12.00
2022-12-03T04:12:38.171Z,11.63
2022-12-03T04:15:06.816Z,11.57
2022-12-03T04:17:34.267Z,11.07
2022-12-03T04:20:01.725Z,12.30
2022-12-03T04:22:40.201Z,11.75
2022-12-03T04:25:27.371Z,11.60
2022-12-03T04:28:12.740Z,11.65
2022-12-03T04:30:40.262Z,11.30
2022-12-03T04:33:25.607Z,11.05
2022-12-03T04:35:53.442Z,11.85
2022-12-03T04:38:20.969Z,11.45
2022-12-03T04:41:01.737Z,11.55
2022-12-03T04:43:29.319Z,11.10
2022-12-03T04:45:56.853Z,10.82
2022-12-03T04:48:24.436Z,11.48
2022-12-03T04:50:51.946Z,10.95
2022-12-03T04:53:19.453Z,11.15
2022-12-03T04:55:46.912Z,11.77
2022-12-03T04:58:30.706Z,11.75
2022-12-03T05:00:58.235Z,11.48
2022-12-03T05:03:25.742Z,10.88
2022-12-03T05:05:53.192Z,10.95
2022-12-03T05:08:20.627Z,11.23
2022-12-03T05:10:48.064Z,11.88
2022-12-03T05:13:15.493Z,10.93
2022-12-03T05:15:44.273Z,11.45
2022-12-03T05:18:11.715Z,10.68
2022-12-03T05:20:42.272Z,10.52
2022-12-03T05:23:09.786Z,10.85
2022-12-03T05:25:37.323Z,11.27
2022-12-03T05:28:05.028Z,11.10
2022-12-03T05:30:32.620Z,11.20
2022-12-03T05:33:01.534Z,11.60
2022-12-03T05:35:28.994Z,11.90
2022-12-03T05:37:56.448Z,11.07
2022-12-03T05:40:23.905Z,11.27
2022-12-03T05:42:56.998Z,11.57
2022-12-03T05:45:24.916Z,11.48
2022-12-03T05:47:52.447Z,11.80
2022-12-03T05:50:21.345Z,10.70
2022-12-03T05:52:48.787Z,11.55
2022-12-03T05:55:16.315Z,11.48
2022-12-03T05:57:44.124Z,11.52
2022-12-03T06:00:14.292Z,11.80
2022-12-03T06:05:09.521Z,11.38
2022-12-03T06:07:38.344Z,11.82
2022-12-03T06:10:06.755Z,11.05
2022-12-03T06:12:34.208Z,11.75
2022-12-03T06:15:01.639Z,11.05
2022-12-03T06:17:29.119Z,12.15
2022-12-03T06:19:56.570Z,12.45
2022-12-03T06:22:24.015Z,11.65
2022-12-03T06:24:53.101Z,11.68
2022-12-03T06:27:20.925Z,11.57
2022-12-03T06:29:48.399Z,10.50
2022-12-03T06:32:15.910Z,11.40
2022-12-03T06:34:43.348Z,10.82
2022-12-03T06:37:10.869Z,11.07
2022-12-03T06:39:38.359Z,11.32
2022-12-03T06:42:07.246Z,10.93
2022-12-03T06:44:34.688Z,11.48
2022-12-03T06:47:02.239Z,11.57
2022-12-03T06:49:29.685Z,10.77
2022-12-03T06:51:57.150Z,12.23
2022-12-03T06:54:24.600Z,10.77
2022-12-03T06:56:52.044Z,11.30
2022-12-03T06:59:20.817Z,11.02
2022-12-03T07:01:48.328Z,10.63
2022-12-03T07:04:15.835Z,10.50
2022-12-03T07:06:43.657Z,11.20
2022-12-03T07:09:11.155Z,11.00
2022-12-03T07:11:40.883Z,11.23
2022-12-03T07:14:08.742Z,11.38
2022-12-03T07:16:37.708Z,12.00
2022-12-03T07:19:05.391Z,10.00
2022-12-03T07:21:32.969Z,10.73
2022-12-03T07:24:00.406Z,11.05
2022-12-03T07:26:27.839Z,10.70
2022-12-03T07:28:55.309Z,10.70
2022-12-03T07:31:22.843Z,10.68
2022-12-03T07:33:51.657Z,10.85
2022-12-03T07:36:19.112Z,10.35
2022-12-03T07:38:46.561Z,11.38
2022-12-03T07:41:14.039Z,10.65
2022-12-03T07:43:41.480Z,10.98
2022-12-03T07:46:09.358Z,10.63
2022-12-03T07:48:36.855Z,10.85
2022-12-03T07:51:05.807Z,11.25
2022-12-03T07:53:33.265Z,10.70
2022-12-03T07:56:00.731Z,9.75
2022-12-03T07:58:28.170Z,10.20
2022-12-03T08:00:55.696Z,11.15
2022-12-03T08:03:23.148Z,11.15
2022-12-03T08:05:50.673Z,9.98
2022-12-03T08:08:19.515Z,9.75
2022-12-03T08:10:46.993Z,10.23
2022-12-03T08:13:15.366Z,10.00
2022-12-03T08:15:43.146Z,11.77
2022-12-03T08:18:13.917Z,10.82
2022-12-03T08:20:42.100Z,9.85
2022-12-03T08:23:13.370Z,10.60
2022-12-03T08:25:42.383Z,11.15
2022-12-03T08:28:13.337Z,11.23
2022-12-03T08:30:40.908Z,11.80
2022-12-03T08:33:17.352Z,10.82
2022-12-03T08:35:46.462Z,11.32
2022-12-03T08:38:13.903Z,10.77
2022-12-03T08:40:43.491Z,10.45
2022-12-03T08:43:14.673Z,11.68
2022-12-03T08:45:42.626Z,11.30
2022-12-03T08:48:33.703Z,12.40
2022-12-03T08:51:02.878Z,10.55
2022-12-03T08:53:32.530Z,11.57
2022-12-03T08:56:02.543Z,11.73
2022-12-03T08:58:39.485Z,12.15
2022-12-03T09:01:17.256Z,12.02
2022-12-03T09:03:48.518Z,11.05
2022-12-03T09:06:15.985Z,11.15
2022-12-03T09:08:43.421Z,11.18
2022-12-03T09:11:12.206Z,11.77
2022-12-03T09:13:39.667Z,10.95
2022-12-03T09:16:07.735Z,10.07
2022-12-03T09:18:35.241Z,10.77
2022-12-03T09:21:02.732Z,9.98
2022-12-03T09:23:30.224Z,10.50
2022-12-03T09:25:57.696Z,10.45
2022-12-03T09:28:26.464Z,10.88
2022-12-03T09:30:53.948Z,10.57
2022-12-03T09:33:21.376Z,9.75
2022-12-03T09:35:48.828Z,9.70
2022-12-03T09:38:16.282Z,10.68
2022-12-03T09:40:43.751Z,9.98
2022-12-03T09:43:11.794Z,9.35
2022-12-03T09:45:40.576Z,9.65
2022-12-03T09:48:08.052Z,9.63
2022-12-03T09:50:35.471Z,9.65
2022-12-03T09:53:03.476Z,9.65
2022-12-03T09:55:31.062Z,9.43
2022-12-03T09:57:58.748Z,9.82
2022-12-03T10:00:27.115Z,9.85
2022-12-03T10:02:57.305Z,9.18
2022-12-03T10:07:52.564Z,9.23
2022-12-03T10:10:21.711Z,9.60
2022-12-03T10:12:49.495Z,9.27
2022-12-03T10:15:18.117Z,9.07
2022-12-03T10:17:46.006Z,9.43
2022-12-03T10:20:16.022Z,9.20
2022-12-03T10:22:43.516Z,9.85
2022-12-03T10:25:12.605Z,9.20
2022-12-03T10:27:40.129Z,9.68
2022-12-03T10:30:16.387Z,9.85
2022-12-03T10:32:45.208Z,9.15
2022-12-03T10:35:15.007Z,8.85
2022-12-03T10:37:59.149Z,9.73
2022-12-03T10:40:27.320Z,9.23
2022-12-03T10:42:56.446Z,9.43
2022-12-03T10:45:24.151Z,9.77
2022-12-03T10:48:05.627Z,9.63
2022-12-03T10:50:34.585Z,9.73
2022-12-03T10:53:02.147Z,10.10
2022-12-03T10:55:30.112Z,10.45
2022-12-03T10:57:57.704Z,10.98
2022-12-03T11:00:25.288Z,9.98
2022-12-03T11:02:56.684Z,10.55
2022-12-03T11:05:27.605Z,10.55
2022-12-03T11:07:56.665Z,10.02
2022-12-03T11:10:24.390Z,9.73
2022-12-03T11:13:29.781Z,10.05
2022-12-03T11:15:57.511Z,10.55
2022-12-03T11:18:59.938Z,10.05
2022-12-03T11:21:27.405Z,10.27
2022-12-03T11:24:16.592Z,11.38
2022-12-03T11:27:18.808Z,11.45
2022-12-03T11:29:56.760Z,10.82
2022-12-03T11:33:09.636Z,10.80
2022-12-03T11:36:06.858Z,11.27
2022-12-03T11:38:55.955Z,11.85
2022-12-03T11:41:27.195Z,11.35
2022-12-03T11:44:31.530Z,10.93
2022-12-03T11:47:00.215Z,10.85
2022-12-03T11:49:51.976Z,11.32
2022-12-03T11:52:25.445Z,11.45
2022-12-03T11:54:54.750Z,11.77
2022-12-03T11:57:32.611Z,9.07
2022-12-03T12:00:01.806Z,11.40
2022-12-03T12:02:29.299Z,12.18
2022-12-03T12:04:56.791Z,12.07
2022-12-03T12:07:36.575Z,11.63
2022-12-03T12:10:04.806Z,11.38
2022-12-03T12:12:38.245Z,12.38
2022-12-03T12:15:42.254Z,12.07
2022-12-03T12:18:35.272Z,12.60
2022-12-03T12:21:41.026Z,12.70
2022-12-03T12:24:35.855Z,12.38
2022-12-03T12:27:04.550Z,12.25
2022-12-03T12:29:33.359Z,12.48
2022-12-03T12:32:03.294Z,12.55
2022-12-03T12:34:30.826Z,12.15
2022-12-03T12:36:58.529Z,12.15
2022-12-03T12:39:26.410Z,13.93
2022-12-03T12:41:53.882Z,12.40
2022-12-03T12:44:23.291Z,13.25
2022-12-03T12:46:52.824Z,13.07
2022-12-03T12:49:26.542Z,12.85
2022-12-03T12:51:54.573Z,13.43
2022-12-03T12:54:22.035Z,12.63
2022-12-03T12:56:49.889Z,13.10
2022-12-03T12:59:18.070Z,12.95
2022-12-03T13:01:46.018Z,14.38
2022-12-03T13:04:15.658Z,13.65
2022-12-03T13:06:43.241Z,13.23
2022-12-03T13:09:14.083Z,14.15
2022-12-03T13:11:45.371Z,14.27
2022-12-03T13:14:15.955Z,14.10
2022-12-03T13:16:43.491Z,14.32
2022-12-03T13:19:21.524Z,14.50
2022-12-03T13:21:49.081Z,14.98
2022-12-03T13:24:27.997Z,15.38
2022-12-03T13:26:55.447Z,15.88
2022-12-03T13:29:23.500Z,14.75
2022-12-03T13:31:52.608Z,14.35
2022-12-03T13:34:22.634Z,15.57
2022-12-03T13:36:57.189Z,14.48
2022-12-03T13:39:28.589Z,15.20
2022-12-03T13:42:13.585Z,14.48
2022-12-03T13:44:43.677Z,14.43
2022-12-03T13:47:13.492Z,14.93
2022-12-03T13:49:42.383Z,15.55
2022-12-03T13:52:13.739Z,15.32
2022-12-03T13:54:41.348Z,15.68
2022-12-03T13:57:08.761Z,15.45
2022-12-03T13:59:36.207Z,15.40
2022-12-03T14:02:03.683Z,15.65
2022-12-03T14:04:31.235Z,15.45
2022-12-03T14:07:00.018Z,16.13
2022-12-03T14:09:27.460Z,15.65
2022-12-03T14:12:12.775Z,16.33
2022-12-03T14:14:40.241Z,15.50
2022-12-03T14:17:09.447Z,15.20
2022-12-03T14:19:36.997Z,16.53
2022-12-03T14:22:07.755Z,15.38
2022-12-03T14:24:35.213Z,15.55
2022-12-03T14:27:02.672Z,16.23
2022-12-03T14:29:30.120Z,16.65
2022-12-03T14:31:57.638Z,15.43
2022-12-03T14:34:25.116Z,16.15
2022-12-03T14:36:52.563Z,16.20
2022-12-03T14:39:21.343Z,16.73
2022-12-03T14:42:06.662Z,16.35
2022-12-03T14:44:34.103Z,15.90
2022-12-03T14:47:01.525Z,16.83
2022-12-03T14:49:28.947Z,16.90
2022-12-03T14:51:56.379Z,16.75
2022-12-03T14:54:25.144Z,17.02
2022-12-03T14:56:52.580Z,15.65
2022-12-03T14:59:25.858Z,16.15
2022-12-03T15:01:55.193Z,16.48
2022-12-03T15:04:22.863Z,16.40
2022-12-03T15:06:50.288Z,16.65
2022-12-03T15:09:17.731Z,15.50
2022-12-03T15:11:46.828Z,17.08
2022-12-03T15:14:14.322Z,16.48
2022-12-03T15:16:41.864Z,16.20
2022-12-03T15:19:09.372Z,16.20
2022-12-03T15:21:36.799Z,16.13
2022-12-03T15:24:04.371Z,16.38
2022-12-03T15:26:31.811Z,16.55
2022-12-03T15:29:00.623Z,16.83
2022-12-03T15:31:28.092Z,17.48
2022-12-03T15:33:55.714Z,17.33
2022-12-03T15:36:23.140Z,16.75
2022-12-03T15:38:50.584Z,17.08
2022-12-03T15:41:24.364Z,16.63
2022-12-03T15:43:52.381Z,17.30
2022-12-03T15:46:21.372Z,17.75
2022-12-03T15:48:48.875Z,17.17
2022-12-03T15:51:16.310Z,17.35
2022-12-03T15:53:43.749Z,16.05
2022-12-03T15:56:11.839Z,17.13
2022-12-03T15:58:39.549Z,17.73
2022-12-03T16:01:07.198Z,17.73
2022-12-03T16:03:36.050Z,17.42
2022-12-03T16:06:03.480Z,17.73
2022-12-03T16:08:30.920Z,17.40
2022-12-03T16:10:58.355Z,17.38
2022-12-03T16:13:25.792Z,17.15
2022-12-03T16:15:53.305Z,17.52
2022-12-03T16:18:20.799Z,16.52
2022-12-03T16:20:49.738Z,17.25
2022-12-03T16:23:17.173Z,18.52
2022-12-03T16:25:44.671Z,17.33
2022-12-03T16:28:12.125Z,16.25
2022-12-03T16:30:39.662Z,17.90
2022-12-03T16:33:07.150Z,16.73
2022-12-03T16:35:34.587Z,17.33
2022-12-03T16:38:03.363Z,18.38
2022-12-03T16:40:30.777Z,18.30
2022-12-03T16:42:58.201Z,18.00
2022-12-03T16:45:51.255Z,17.75
2022-12-03T16:48:19.281Z,18.15
2022-12-03T16:50:46.740Z,16.92
2022-12-03T16:53:15.540Z,18.05
2022-12-03T16:55:42.988Z,18.02
2022-12-03T16:58:10.427Z,18.65
2022-12-03T17:00:37.868Z,18.95
2022-12-03T17:03:05.355Z,18.80
2022-12-03T17:05:33.444Z,18.95
2022-12-03T17:08:00.970Z,18.13
2022-12-03T17:10:29.866Z,18.33
2022-12-03T17:13:12.731Z,19.48
2022-12-03T17:15:40.307Z,19.33
2022-12-03T17:18:07.974Z,18.75
2022-12-03T17:20:35.547Z,19.05
2022-12-03T17:23:02.988Z,19.85
2022-12-03T17:25:31.785Z,18.33
2022-12-03T17:27:59.223Z,18.70
2022-12-03T17:30:26.651Z,17.48
2022-12-03T17:32:54.071Z,18.17
2022-12-03T17:35:21.529Z,18.60
2022-12-03T17:37:48.964Z,18.10
2022-12-03T17:40:17.114Z,19.60
2022-12-03T17:42:45.888Z,18.58
2022-12-03T17:45:13.633Z,18.63
2022-12-03T17:47:41.095Z,18.00
2022-12-03T17:50:09.519Z,18.60
2022-12-03T17:52:36.949Z,18.73
2022-12-03T17:55:17.693Z,17.88
2022-12-03T17:57:50.239Z,17.95
2022-12-03T18:00:18.036Z,18.33
2022-12-03T18:02:45.475Z,19.13
2022-12-03T18:05:13.974Z,19.42
2022-12-03T18:07:41.510Z,18.33
2022-12-03T18:10:09.312Z,19.48
2022-12-03T18:12:36.773Z,19.40
2022-12-03T18:15:06.301Z,19.05
2022-12-03T18:17:33.777Z,19.77
2022-12-03T18:20:01.225Z,19.70
2022-12-03T18:22:28.699Z,19.08
2022-12-03T18:24:56.442Z,18.30
2022-12-03T18:27:23.941Z,18.52
2022-12-03T18:29:51.630Z,17.92
2022-12-03T18:32:28.878Z,19.45
2022-12-03T18:34:57.011Z,18.35
2022-12-03T18:37:24.640Z,19.38
2022-12-03T18:39:52.293Z,18.65
2022-12-03T18:42:20.611Z,19.42
2022-12-03T18:44:50.029Z,19.85
2022-12-03T18:47:19.926Z,19.83
2022-12-03T18:49:47.418Z,18.75
2022-12-03T18:52:15.109Z,18.70
2022-12-03T18:54:42.569Z,19.95
2022-12-03T18:57:10.125Z,19.88
2022-12-03T18:59:37.584Z,19.10
2022-12-03T19:02:05.167Z,19.40
2022-12-03T19:04:34.004Z,20.55
2022-12-03T19:07:03.235Z,19.75
2022-12-03T19:09:30.735Z,19.80
2022-12-03T19:11:58.243Z,20.50
2022-12-03T19:14:25.709Z,18.42
2022-12-03T19:16:53.274Z,20.02
2022-12-03T19:19:20.793Z,19.85
2022-12-03T19:21:49.543Z,20.02
2022-12-03T19:24:24.225Z,20.13
2022-12-03T19:26:55.137Z,20.92
2022-12-03T19:31:50.822Z,19.38
2022-12-03T19:34:18.339Z,19.92
2022-12-03T19:36:45.857Z,20.30
2022-12-03T19:39:14.661Z,20.30
2022-12-03T19:41:43.621Z,20.27
2022-12-03T19:44:12.988Z,20.35
2022-12-03T19:46:40.433Z,20.60
2022-12-03T19:49:07.921Z,20.38
2022-12-03T19:51:36.020Z,19.95
2022-12-03T19:54:03.796Z,19.67
2022-12-03T19:56:32.547Z,20.65
2022-12-03T19:59:00.117Z,19.92
2022-12-03T20:01:29.463Z,19.75
2022-12-03T20:03:57.831Z,20.52
2022-12-03T20:06:26.556Z,21.58
2022-12-03T20:08:56.360Z,20.33
2022-12-03T20:11:24.733Z,19.83
2022-12-03T20:13:54.687Z,19.98
2022-12-03T20:16:22.249Z,20.48
2022-12-03T20:18:50.027Z,20.45
2022-12-03T20:21:20.304Z,19.52
2022-12-03T20:23:47.900Z,20.77
2022-12-03T20:26:17.121Z,20.08
2022-12-03T20:28:44.675Z,19.63
2022-12-03T20:31:14.579Z,20.48
2022-12-03T20:33:43.183Z,21.17
2022-12-03T20:36:11.122Z,20.30
2022-12-03T20:38:38.555Z,20.65
2022-12-03T20:41:07.049Z,21.25
2022-12-03T20:43:34.689Z,19.77
2022-12-03T20:46:07.241Z,19.58
2022-12-03T20:48:36.070Z,19.25
2022-12-03T20:51:04.539Z,19.88
2022-12-03T20:53:31.991Z,19.63
2022-12-03T20:55:59.629Z,19.40
2022-12-03T20:58:27.421Z,20.67
2022-12-03T21:00:54.930Z,19.75
2022-12-03T21:03:22.401Z,19.95
2022-12-03T21:05:51.176Z,19.52
2022-12-03T21:08:39.288Z,18.67
2022-12-03T21:11:08.784Z,19.05
2022-12-03T21:16:04.817Z,18.50
2022-12-03T21:18:32.263Z,19.50
2022-12-03T21:21:01.517Z,19.15
2022-12-03T21:23:29.076Z,19.53
2022-12-03T21:26:03.748Z,19.20
2022-12-03T21:28:31.236Z,18.73
2022-12-03T21:31:01.499Z,19.23
2022-12-03T21:33:29.452Z,17.95
2022-12-03T21:35:57.242Z,18.80
2022-12-03T21:38:26.053Z,19.17
2022-12-03T21:40:53.516Z,19.00
2022-12-03T21:43:21.027Z,19.00
2022-12-03T21:45:48.543Z,18.40
2022-12-03T21:48:16.188Z,18.27
2022-12-03T21:50:43.723Z,19.42
2022-12-03T21:53:11.204Z,19.02
2022-12-03T21:55:41.225Z,18.15
2022-12-03T21:58:08.710Z,17.92
2022-12-03T22:00:36.274Z,18.52
2022-12-03T22:03:03.861Z,18.25
2022-12-03T22:05:31.369Z,17.40
2022-12-03T22:07:58.866Z,18.30
2022-12-03T22:10:26.375Z,17.90
2022-12-03T22:12:55.230Z,17.95
2022-12-03T22:15:22.681Z,17.38
2022-12-03T22:17:50.144Z,17.55
2022-12-03T22:20:17.615Z,17.40
2022-12-03T22:22:45.108Z,18.25
2022-12-03T22:25:12.561Z,19.02
2022-12-03T22:27:40.011Z,17.50
2022-12-03T22:30:09.736Z,17.13
2022-12-03T22:32:37.182Z,18.13
2022-12-03T22:35:04.990Z,18.17
2022-12-03T22:37:33.384Z,16.42
2022-12-03T22:40:00.800Z,17.70
2022-12-03T22:42:28.243Z,16.77
2022-12-03T22:44:55.689Z,17.92
2022-12-03T22:47:24.458Z,17.83
2022-12-03T22:49:52.497Z,17.38
2022-12-03T22:52:20.107Z,17.33
2022-12-03T22:54:47.571Z,17.48
2022-12-03T22:57:15.639Z,16.60
2022-12-03T22:59:43.106Z,17.20
2022-12-03T23:02:10.563Z,18.08
2022-12-03T23:04:39.381Z,17.27
2022-12-03T23:07:08.025Z,18.00
2022-12-03T23:09:35.480Z,17.85
2022-12-03T23:12:02.915Z,17.95
2022-12-03T23:14:30.400Z,17.25
2022-12-03T23:16:57.861Z,17.98
2022-12-03T23:19:25.324Z,16.70
2022-12-03T23:21:54.109Z,18.42
2022-12-03T23:24:21.631Z,16.90
2022-12-03T23:26:49.073Z,17.48
2022-12-03T23:29:16.524Z,17.08
2022-12-03T23:31:44.034Z,16.58
2022-12-03T23:34:11.618Z,16.92
2022-12-03T23:36:39.055Z,17.42
2022-12-03T23:39:07.813Z,16.33
2022-12-03T23:41:36.013Z,16.42
2022-12-03T23:44:03.458Z,17.33
2022-12-03T23:46:31.002Z,17.45
2022-12-03T23:48:59.318Z,16.65
2022-12-03T23:51:26.824Z,16.40
2022-12-03T23:53:55.241Z,15.85
2022-12-03T23:56:27.771Z,16.33
2022-12-03T23:58:55.187Z,16.52
